TCMO2: Little River Nr Tecumseh, OK

Data processed at Thu May 23 2019 23:50


All information presented herein is the property of the government of the United States of America and may be revised or deleted at any time without prior notice.
Dissemination of this information without the expressed written consent of the Public Affairs Office, Tulsa District U.S. Army Corps of Engineers is strictly prohibited.
These data are gathered electronically and, as presented, have not undergone any form of quality control. These data are not guaranteed to be valid or correct.
Go to home page.
Go to station list.
Go to home page.

Upstream stations:

Downstream station:
Previous Day
Next Day
Current Day
    
SHEF ID:       TCMO2     Little River near Tecumseh, OK
STATION TYPE:  
Regulating: Stage =    11.00, Flow =     2125

                STAGE  RIV-FLOW  BAT-LOAD
                   ft       cfs      volt
              Ccp-Rev   Ccp-Rev   Ccp-Rev
(US/Central)
05/23 00:00      5.76       181     12.65
05/23 01:00      5.73       176     12.65
05/23 02:00      5.70       170     12.65
05/23 03:00      5.68       167     12.65
05/23 04:00      5.66       163     12.65
05/23 05:00      5.64       160     12.57
05/23 06:00      5.63       158     12.57
05/23 07:00      5.62       157     12.57
05/23 08:00      5.61       155     12.65
05/23 09:00      5.60       153     12.73
05/23 10:00      5.58       150     12.89
05/23 11:00      5.57       149     12.97
05/23 12:00      5.55       145     13.05
05/23 13:00      5.53       142     13.05
05/23 14:00      5.51       139     13.05
05/23 15:00      5.49       136     13.05
05/23 16:00      5.48       134     13.05
05/23 17:00      5.51       139     13.05
05/23 18:00      5.97       222     13.05
05/23 19:00      6.58       367     13.05
05/23 20:00      6.88       448     12.89
05/23 21:00      7.05       496     12.73
05/23 22:00      7.15       526     12.73
05/23 23:00      7.19       538     12.65